Latest Weather Observations for Port Augusta

IDS60801

Issued at 6:41 pm CDT Sunday 24 January 2021 (issued every 10 minutes, with the page automatically refreshed every 10 minutes)

About weather observations | Map of weather stations | Latest weather observations for SA | Other Formats
Station Details ID: 018201 Name: PORT AUGUSTA AERO Lat: -32.51 Lon: 137.72 Height: 13.97 m
Data from the previous 72 hours. | See also: Recent months at Port Augusta
Date/Time
CDT
Temp
°C
App
Temp
°C
Dew
Point
°C
Rel
Hum
%
Delta-T
°C
Wind Press
QNH
hPa
Press
MSL
hPa
Rain since
9am
mm
Dir  Spd
km/h
Gust
km/h
Spd
kts
Gust
kts
24/06:30pm 41.9 36.8 0.9 8 21.5 NW 17 22 9 12 999.4 999.4 0.0
24/06:00pm 42.4 38.5 1.3 8 21.7 W 11 19 6 10 999.5 999.5 0.0
24/05:30pm 42.5 37.9 1.3 8 21.8 WNW 15 28 8 15 999.7 999.7 0.0
24/05:00pm 42.7 37.3 1.5 8 21.8 NW 19 32 10 17 1000.0 1000.0 0.0
24/04:30pm 42.6 38.7 1.4 8 21.8 NNW 11 20 6 11 1000.3 1000.3 0.0
24/04:00pm 43.2 39.0 1.9 8 22.0 NW 13 30 7 16 1000.7 1000.7 0.0
24/03:30pm 43.8 38.4 2.3 8 22.4 NW 20 33 11 18 1001.1 1001.1 0.0
24/03:00pm 44.3 38.2 2.7 8 22.7 NNW 24 37 13 20 1001.5 1001.5 0.0
24/02:47pm 44.0 37.1 2.4 8 22.4 NNW 28 46 15 25 1001.7 1001.7 0.0
24/02:30pm 44.4 37.5 2.7 8 22.7 NNE 28 39 15 21 1001.9 1001.9 0.0
24/02:26pm 43.9 36.7 0.5 7 22.8 N 28 56 15 30 1002.0 1002.0 0.0
24/02:00pm 42.8 35.0 1.6 8 21.8 NNW 32 46 17 25 1002.4 1002.4 0.0
24/01:30pm 43.4 37.2 2.0 8 22.2 NNW 24 39 13 21 1002.9 1002.9 0.0
24/01:00pm 42.2 35.3 2.8 9 21.2 NNW 28 41 15 22 1003.4 1003.4 0.0
24/12:30pm 43.0 35.6 1.7 8 22.0 N 30 41 16 22 1003.7 1003.7 0.0
24/12:00pm 42.2 34.0 2.8 9 21.2 N 35 46 19 25 1004.0 1004.0 0.0
24/11:30am 41.1 33.0 3.4 10 20.4 N 35 44 19 24 1004.5 1004.5 0.0
24/11:00am 41.6 33.6 3.8 10 20.6 N 35 44 19 24 1004.6 1004.6 0.0
24/10:37am 41.1 34.4 3.4 10 20.3 N 28 48 15 26 1004.5 1004.5 0.0
24/10:30am 40.1 34.9 2.7 10 19.9 NNW 19 28 10 15 1004.7 1004.7 0.0
24/10:00am 37.5 33.2 0.7 10 18.7 NNW 13 20 7 11 1005.0 1005.0 0.0
24/09:30am 35.7 31.4 -2.0 9 18.2 WNW 11 15 6 8 1005.3 1005.3 0.0
24/09:00am 35.1 31.1 -2.5 9 17.9 WSW 9 11 5 6 1005.3 1005.3 0.0
24/08:30am 32.0 27.6 -2.1 11 16.0 WSW 11 13 6 7 1005.2 1005.2 0.0
24/08:00am 29.3 25.5 -0.9 14 14.1 SW 9 11 5 6 1005.1 1005.1 0.0
24/07:30am 27.5 23.6 -1.4 15 13.3 SW 9 13 5 7 1004.8 1004.8 0.0
24/07:00am 26.1 22.7 -0.8 17 12.3 WSW 7 11 4 6 1004.5 1004.5 0.0
24/06:30am 27.5 25.7 1.1 18 12.7 CALM 0 0 0 0 1004.3 1004.3 0.0
24/06:00am 27.8 24.5 -1.2 15 13.4 E 6 9 3 5 1004.0 1004.0 0.0
24/05:30am 30.0 25.6 -2.5 12 14.9 SE 11 15 6 8 1003.7 1003.7 0.0
24/05:00am 31.9 26.4 -2.2 11 15.9 SE 17 19 9 10 1003.5 1003.5 0.0
24/04:30am 30.5 26.5 -2.1 12 15.1 SSE 9 11 5 6 1003.6 1003.6 0.0
24/04:00am 31.6 26.8 -2.4 11 15.8 SE 13 17 7 9 1003.6 1003.6 0.0
24/03:30am 31.3 26.1 -2.6 11 15.7 SSE 15 17 8 9 1003.9 1003.9 0.0
24/03:00am 31.9 26.9 -1.0 12 15.7 SSE 15 17 8 9 1004.0 1004.0 0.0
24/02:30am 31.8 27.6 -1.1 12 15.7 SE 11 15 6 8 1004.2 1004.2 0.0
24/02:00am 32.4 27.5 -0.6 12 15.9 SE 15 19 8 10 1004.4 1004.4 0.0
24/01:30am 32.2 26.9 -0.8 12 15.8 SE 17 20 9 11 1004.6 1004.6 0.0
24/01:00am 33.1 27.7 -1.3 11 16.4 SE 17 24 9 13 1004.7 1004.7 0.0
24/12:30am 33.6 27.7 -2.2 10 17.0 SE 19 22 10 12 1004.9 1004.9 0.0
24/12:00am 34.5 28.5 -1.5 10 17.4 SSE 20 24 11 13 1004.9 1004.9 0.0
 
Date/Time
CDT
Temp
°C
App
Temp
°C
Dew
Point
°C
Rel
Hum
%
Delta-T
°C
Wind Press
QNH
hPa
Press
MSL
hPa
Rain since
9am
mm
Dir  Spd
km/h
Gust
km/h
Spd
kts
Gust
kts
23/11:30pm 35.0 28.1 -2.6 9 17.9 SSE 24 30 13 16 1005.1 1005.1 0.0
23/11:00pm 35.2 27.8 -1.0 10 17.6 SSE 28 32 15 17 1005.2 1005.2 0.0
23/10:30pm 34.5 28.1 -1.5 10 17.3 SSE 22 30 12 16 1005.2 1005.2 0.0
23/10:00pm 35.7 29.3 -2.0 9 18.1 SE 22 28 12 15 1004.8 1004.8 0.0
23/09:30pm 35.7 29.3 -2.0 9 18.2 SE 22 28 12 15 1004.5 1004.5 0.0
23/09:00pm 36.8 29.7 -1.2 9 18.7 SE 26 32 14 17 1004.3 1004.3 0.0
23/08:30pm 36.8 29.3 -1.2 9 18.7 SE 28 37 15 20 1004.1 1004.1 0.0
23/08:00pm 38.4 31.3 -1.6 8 19.7 SSE 26 33 14 18 1003.9 1003.9 0.0
23/07:30pm 39.3 31.5 -1.0 8 20.2 SSE 30 39 16 21 1003.7 1003.7 0.0
23/07:00pm 39.6 31.4 -0.8 8 20.3 SE 32 43 17 23 1003.5 1003.5 0.0
23/06:30pm 39.6 30.9 -0.8 8 20.4 SSE 35 43 19 23 1003.3 1003.3 0.0
23/06:00pm 40.6 31.8 -3.9 6 21.5 SE 33 43 18 23 1003.3 1003.3 0.0
23/05:30pm 41.8 35.4 0.8 8 21.4 SE 24 32 13 17 1003.4 1003.4 0.0
23/05:00pm 42.6 37.8 -2.5 6 22.5 SE 13 26 7 14 1003.5 1003.5 0.0
23/04:30pm 43.0 37.6 -4.7 5 23.2 ENE 15 22 8 12 1003.8 1003.8 0.0
23/04:00pm 42.3 38.0 -5.1 5 22.7 E 9 15 5 8 1004.1 1004.1 0.0
23/03:30pm 42.8 38.9 -4.8 5 23.0 S 7 15 4 8 1004.4 1004.4 0.0
23/03:00pm 42.4 38.1 -5.1 5 22.8 WNW 9 20 5 11 1004.8 1004.8 0.0
23/02:30pm 41.6 36.8 -5.6 5 22.4 WSW 11 26 6 14 1005.4 1005.4 0.0
23/02:00pm 41.8 35.3 -5.5 5 22.4 N 20 30 11 16 1005.9 1005.9 0.0
23/01:30pm 41.7 35.8 -5.6 5 22.4 NW 17 26 9 14 1006.1 1006.1 0.0
23/01:00pm 41.4 36.9 -3.4 6 21.9 NNW 11 24 6 13 1006.2 1006.2 0.0
23/12:30pm 41.1 36.2 -3.6 6 21.8 NE 13 24 7 13 1006.7 1006.7 0.0
23/12:00pm 39.9 33.7 -4.4 6 21.1 N 19 28 10 15 1007.0 1007.0 0.0
23/11:30am 38.5 33.4 -5.4 6 20.4 N 13 20 7 11 1007.4 1007.4 0.0
23/11:00am 37.0 32.0 -4.4 7 19.3 NNW 13 24 7 13 1008.0 1007.9 0.0
23/10:30am 35.6 31.8 -3.7 8 18.4 N 7 13 4 7 1008.1 1008.0 0.0
23/10:00am 35.5 29.8 -3.8 8 18.3 E 17 24 9 13 1008.3 1008.2 0.0
23/09:30am 34.2 28.4 -4.7 8 17.7 E 17 26 9 14 1008.3 1008.2 0.0
23/09:00am 32.6 27.2 -1.7 11 16.2 E 17 24 9 13 1008.5 1008.4 0.0
23/08:30am 30.8 25.2 0.2 14 14.8 ESE 19 22 10 12 1008.5 1008.4 0.0
23/08:00am 28.4 23.7 3.3 20 12.6 SE 17 20 9 11 1008.3 1008.2 0.0
23/07:30am 25.6 22.2 9.0 35 9.0 SE 17 19 9 10 1008.3 1008.2 0.0
23/07:00am 23.4 20.1 9.4 41 7.6 SE 17 22 9 12 1008.4 1008.3 0.0
23/06:30am 24.1 20.2 5.5 30 9.4 SE 15 22 8 12 1008.4 1008.3 0.0
23/06:00am 24.9 20.6 5.2 28 10.0 SE 17 20 9 11 1008.2 1008.1 0.0
23/05:30am 22.9 20.0 4.9 31 9.0 SSE 9 13 5 7 1008.2 1008.1 0.0
23/05:00am 23.5 20.4 5.4 31 9.1 SE 11 15 6 8 1008.0 1007.9 0.0
23/04:30am 24.4 21.1 6.2 31 9.4 SE 13 17 7 9 1007.8 1007.7 0.0
23/04:00am 22.4 19.4 7.8 39 7.6 ESE 13 17 7 9 1007.9 1007.8 0.0
23/03:30am 22.7 20.4 10.5 46 6.7 SE 13 19 7 10 1007.9 1007.8 0.0
23/03:00am 23.7 20.6 10.4 43 7.4 SE 17 22 9 12 1008.3 1008.2 0.0
23/02:30am 24.1 20.2 10.7 43 7.5 SE 22 30 12 16 1008.4 1008.3 0.0
23/02:00am 24.7 20.8 9.4 38 8.3 SE 20 30 11 16 1008.5 1008.4 0.0
23/01:30am 25.6 21.7 5.2 27 10.4 SE 15 20 8 11 1008.8 1008.7 0.0
23/01:00am 26.0 22.8 0.6 19 11.9 SSW 7 15 4 8 1008.9 1008.8 0.0
23/12:30am 27.3 20.6 1.7 19 12.4 SSE 26 33 14 18 1008.9 1008.8 0.0
23/12:00am 27.7 20.7 2.0 19 12.5 SE 28 35 15 19 1008.8 1008.7 0.0
 
Date/Time
CDT
Temp
°C
App
Temp
°C
Dew
Point
°C
Rel
Hum
%
Delta-T
°C
Wind Press
QNH
hPa
Press
MSL
hPa
Rain since
9am
mm
Dir  Spd
km/h
Gust
km/h
Spd
kts
Gust
kts
22/11:30pm 28.0 20.9 1.5 18 12.8 SE 28 37 15 20 1008.8 1008.7 0.0
22/11:00pm 29.1 21.7 1.6 17 13.4 SE 30 41 16 22 1008.7 1008.6 0.0
22/10:30pm 29.7 22.5 2.9 18 13.5 SE 30 39 16 21 1008.6 1008.5 0.0
22/10:00pm 26.7 24.4 11.6 39 8.6 ESE 15 22 8 12 1008.7 1008.6 0.0
22/09:30pm 26.7 24.4 11.6 39 8.6 ESE 15 22 8 12 1008.7 1008.6 0.0
22/09:00pm 26.8 24.4 12.8 42 8.2 ESE 17 24 9 13 1008.5 1008.4 0.0
22/08:30pm 27.6 24.5 13.5 41 8.4 ESE 22 30 12 16 1008.1 1008.0 0.0
22/08:00pm 29.6 25.4 11.2 32 10.6 ESE 24 32 13 17 1008.0 1007.9 0.0
22/07:30pm 30.5 27.3 11.9 31 10.9 SE 20 28 11 15 1007.8 1007.7 0.0
22/07:00pm 33.6 28.4 9.0 22 13.9 SSE 26 35 14 19 1007.4 1007.4 0.0
22/06:30pm 35.8 27.3 -3.5 8 18.5 SSE 32 37 17 20 1007.1 1007.1 0.0
22/06:00pm 36.1 27.8 -1.7 9 18.3 SSE 32 39 17 21 1007.1 1007.1 0.0
22/05:30pm 36.4 28.5 2.5 12 17.6 SSE 33 44 18 24 1007.0 1007.0 0.0
22/05:00pm 34.9 27.8 6.2 17 15.6 SE 33 43 18 23 1007.1 1007.1 0.0
22/04:30pm 35.4 27.0 -0.8 10 17.7 SSE 33 39 18 21 1007.3 1007.3 0.0
22/04:00pm 36.3 28.0 -1.6 9 18.4 SE 32 39 17 21 1007.4 1007.4 0.0
22/03:30pm 35.9 27.8 -0.5 10 18.0 SE 32 39 17 21 1007.8 1007.7 0.0
22/03:00pm 35.9 28.4 0.9 11 17.7 SE 30 41 16 22 1008.2 1008.1 0.0
22/02:30pm 35.7 27.4 -0.6 10 17.9 SSE 33 39 18 21 1008.3 1008.2 0.0
22/02:00pm 36.4 29.1 -0.1 10 18.2 SE 28 35 15 19 1008.5 1008.4 0.0
22/01:30pm 35.9 28.7 3.2 13 17.1 SE 30 35 16 19 1008.8 1008.7 0.0
22/01:00pm 35.8 30.1 5.1 15 16.5 SE 24 33 13 18 1009.0 1008.9 0.0
22/12:30pm 35.3 29.8 0.4 11 17.4 SSE 19 28 10 15 1009.4 1009.3 0.0
22/12:00pm 34.8 29.8 3.4 14 16.4 SSE 19 26 10 14 1009.4 1009.3 0.0
22/11:30am 33.5 29.0 5.9 18 14.9 SE 19 24 10 13 1009.7 1009.6 0.0
22/11:00am 31.8 28.1 9.3 25 12.7 SE 19 24 10 13 1009.9 1009.8 0.0
22/10:30am 28.6 26.9 16.2 47 7.7 ESE 20 26 11 14 1010.0 1009.9 0.0
22/10:00am 27.5 25.9 16.5 51 6.8 ESE 20 26 11 14 1010.2 1010.1 0.0
22/09:30am 26.4 25.0 16.9 56 5.9 ESE 20 28 11 15 1010.3 1010.2 0.0
22/09:00am 24.9 21.2 15.0 54 5.9 ESE 28 33 15 18 1010.5 1010.4 0.0
22/08:30am 24.6 22.2 14.4 53 6.1 ESE 20 28 11 15 1010.3 1010.2 0.0
22/08:00am 24.2 20.9 11.5 45 7.2 SE 20 30 11 16 1010.2 1010.1 0.0
22/07:30am 22.5 21.1 12.2 52 5.8 SSE 11 15 6 8 1010.1 1010.0 0.0
22/07:00am 21.5 18.9 9.4 46 6.5 SE 13 17 7 9 1010.1 1010.0 0.0
22/06:30am 21.6 20.3 14.7 65 4.1 SE 15 20 8 11 1009.6 1009.5 0.0
22/06:00am 21.2 18.4 5.1 35 7.9 SSE 9 13 5 7 1009.2 1009.1 0.0
22/05:30am 21.4 18.0 5.7 36 7.9 SE 13 19 7 10 1008.8 1008.7 0.0
22/05:00am 19.3 16.9 6.8 44 6.3 SSW 9 11 5 6 1008.7 1008.6 0.0
22/04:30am 19.9 18.0 9.2 50 5.7 SW 9 13 5 7 1008.5 1008.4 0.0
22/04:00am 20.4 19.5 10.5 53 5.4 S 6 7 3 4 1008.3 1008.2 0.0
22/03:30am 21.4 20.3 12.0 55 5.3 E 9 13 5 7 1008.3 1008.2 0.0
22/03:00am 21.9 19.9 11.6 52 5.8 ENE 13 17 7 9 1008.6 1008.5 0.0
22/02:30am 23.4 20.6 7.1 35 8.5 ENE 11 17 6 9 1008.5 1008.4 0.0
22/02:00am 26.0 21.9 2.0 21 11.5 SSW 13 17 7 9 1008.4 1008.3 0.0
22/01:30am 27.3 23.1 1.7 19 12.4 SSW 13 20 7 11 1008.8 1008.7 0.0
22/01:00am 28.1 21.5 2.3 19 12.7 SSE 26 32 14 17 1008.7 1008.6 0.0
22/12:30am 28.3 20.4 2.5 19 12.7 SSE 33 43 18 23 1008.7 1008.6 0.0
22/12:00am 28.7 19.6 2.1 18 13.1 SSE 39 50 21 27 1008.8 1008.7 0.0
 
Date/Time
CDT
Temp
°C
App
Temp
°C
Dew
Point
°C
Rel
Hum
%
Delta-T
°C
Wind Press
QNH
hPa
Press
MSL
hPa
Rain since
9am
mm
Dir  Spd
km/h
Gust
km/h
Spd
kts
Gust
kts
21/11:30pm 29.1 20.5 2.4 18 13.2 SSE 37 46 20 25 1008.9 1008.8 0.0
21/11:00pm 29.5 22.1 4.2 20 12.9 SSE 32 43 17 23 1008.8 1008.7 0.0
21/10:30pm 29.3 24.0 6.7 24 12.1 SSE 24 35 13 19 1009.0 1008.9 0.0
21/10:00pm 29.9 24.8 3.0 18 13.5 SSW 19 28 10 15 1009.0 1008.9 0.0
21/09:30pm 30.6 25.0 1.0 15 14.5 SSW 20 32 11 17 1008.5 1008.4 0.0
21/09:00pm 31.6 26.0 0.9 14 15.1 SSE 20 28 11 15 1008.0 1007.9 0.0
21/08:30pm 32.2 24.9 0.3 13 15.6 SSE 28 35 15 19 1007.4 1007.4 0.0
21/08:00pm 33.5 25.4 1.3 13 16.1 SSE 33 44 18 24 1007.0 1007.0 0.0
21/07:30pm 34.7 25.5 1.1 12 16.9 SSE 39 48 21 26 1006.6 1006.6 0.0
21/07:00pm 36.3 27.6 -0.2 10 18.1 S 35 44 19 24 1006.4 1006.4 0.0

Other formats

Comma delimited format used in spreadsheet applications
http://www.bom.gov.au/fwo/IDS60801/IDS60801.95666.axf

JavaScript Object Notation format (JSON) in row-major order
http://www.bom.gov.au/fwo/IDS60801/IDS60801.95666.json

Data quality

Most of these data are generated automatically and are frequently updated. Quality checks on data are not normally performed. It is possible for incorrect values to appear. Refer to information at About Latest Weather Observations and please check the disclaimer before using these data.